createdAt,value
2023-05-11T00:03:00.070Z,11.2
2023-05-11T00:18:00.117Z,11.1
2023-05-11T00:33:00.100Z,10.9
2023-05-11T00:48:00.114Z,10.9
2023-05-11T01:03:00.041Z,10.9
2023-05-11T01:18:00.033Z,10.9
2023-05-11T01:33:00.097Z,10.8
2023-05-11T01:48:00.011Z,10.9
2023-05-11T02:03:00.034Z,10.8
2023-05-11T02:18:00.025Z,10.8
2023-05-11T02:33:00.046Z,10.6
2023-05-11T02:48:00.083Z,10.6
2023-05-11T03:03:00.102Z,10.5
2023-05-11T03:18:00.026Z,10.4
2023-05-11T03:33:00.021Z,10.4
2023-05-11T03:48:00.059Z,10.3
2023-05-11T04:03:00.057Z,10.3
2023-05-11T04:18:00.064Z,10.4
2023-05-11T04:33:00.000Z,10.6
2023-05-11T04:48:00.049Z,10.7
2023-05-11T05:03:00.030Z,10.8
2023-05-11T05:18:00.005Z,10.8
2023-05-11T05:33:00.040Z,10.9
2023-05-11T05:48:00.056Z,10.8
2023-05-11T06:03:00.120Z,10.8
2023-05-11T06:18:00.040Z,10.8
2023-05-11T06:33:00.035Z,10.8
2023-05-11T06:48:00.085Z,11.1
2023-05-11T07:03:00.070Z,11.4
2023-05-11T07:18:00.048Z,11.4
2023-05-11T07:33:00.098Z,11.8
2023-05-11T07:48:00.064Z,12.1
2023-05-11T08:03:00.141Z,12.3
2023-05-11T08:18:00.048Z,12.4
2023-05-11T08:33:00.053Z,12.4
2023-05-11T08:48:00.136Z,12.5
2023-05-11T09:03:00.084Z,12.9
2023-05-11T09:18:00.071Z,12.6
2023-05-11T09:33:00.352Z,12.8
2023-05-11T09:48:00.036Z,13.8
2023-05-11T10:03:00.038Z,13.1
2023-05-11T10:18:00.117Z,13.2
2023-05-11T10:33:00.041Z,13.3
2023-05-11T10:48:00.080Z,13.3
2023-05-11T11:03:00.047Z,13.6
2023-05-11T11:18:00.033Z,13.8
2023-05-11T11:33:00.036Z,14
2023-05-11T11:48:00.042Z,14.8
2023-05-11T12:03:00.121Z,15.1
2023-05-11T12:18:00.031Z,14.8
2023-05-11T12:33:00.122Z,14.8
2023-05-11T12:48:00.135Z,14.7
2023-05-11T13:03:00.074Z,15.4
2023-05-11T13:18:00.096Z,15.2
2023-05-11T13:33:00.055Z,16
2023-05-11T13:48:00.016Z,16.4
2023-05-11T14:03:00.112Z,16.9
2023-05-11T14:18:00.108Z,16.2
2023-05-11T14:33:00.076Z,16.6
2023-05-11T14:48:00.116Z,16.5
2023-05-11T15:03:00.143Z,16.4
2023-05-11T15:18:00.044Z,16.6
2023-05-11T15:33:00.045Z,17.1
2023-05-11T15:48:00.074Z,16.3
2023-05-11T16:03:00.065Z,16.6
2023-05-11T16:18:01.112Z,16.4
2023-05-11T16:33:00.076Z,16.2
2023-05-11T16:48:00.101Z,16.2
2023-05-11T17:03:00.214Z,16.1
2023-05-11T17:18:00.004Z,16.1
2023-05-11T17:33:00.115Z,15.8
2023-05-11T17:48:00.092Z,15.7
2023-05-11T18:03:00.035Z,15.7
2023-05-11T18:18:00.034Z,15.4
2023-05-11T18:33:00.081Z,15.2
2023-05-11T18:48:00.074Z,14.9
2023-05-11T19:03:00.121Z,14.6
2023-05-11T19:18:00.078Z,14.4
2023-05-11T19:33:00.034Z,14
2023-05-11T19:48:00.139Z,14
2023-05-11T20:03:00.063Z,13.8
2023-05-11T20:18:00.053Z,13.6
2023-05-11T20:48:00.043Z,13.6
2023-05-11T21:03:00.112Z,13.4
2023-05-11T21:18:00.051Z,13.5
2023-05-11T21:33:00.046Z,13.2
2023-05-11T21:48:00.025Z,13.1
2023-05-11T22:03:00.087Z,12.9
2023-05-11T22:18:00.046Z,12.9
2023-05-11T22:33:00.025Z,12.6
2023-05-11T22:48:00.022Z,12.3
2023-05-11T23:03:00.109Z,12.2
2023-05-11T23:18:00.044Z,12.2
2023-05-11T23:33:00.020Z,11.9
2023-05-11T23:48:00.045Z,11.8
